sensor_id;sensor_type;location;lat;lon;timestamp;P1;durP1;ratioP1;P2;durP2;ratioP2
63112;SDS011;49206;48.020;21.378;2024-03-02T00:00:14;28.38;;;18.48;;
63112;SDS011;49206;48.020;21.378;2024-03-02T00:01:17;31.85;;;17.55;;
63112;SDS011;49206;48.020;21.378;2024-03-02T00:02:20;30.08;;;18.42;;
63112;SDS011;49206;48.020;21.378;2024-03-02T00:03:23;36.40;;;18.15;;
63112;SDS011;49206;48.020;21.378;2024-03-02T00:04:27;32.13;;;18.75;;
63112;SDS011;49206;48.020;21.378;2024-03-02T00:05:29;32.50;;;18.23;;
63112;SDS011;49206;48.020;21.378;2024-03-02T00:06:32;29.85;;;18.02;;
63112;SDS011;49206;48.020;21.378;2024-03-02T00:07:35;31.40;;;18.30;;
63112;SDS011;49206;48.020;21.378;2024-03-02T00:08:38;33.10;;;19.42;;
63112;SDS011;49206;48.020;21.378;2024-03-02T00:09:41;31.23;;;18.45;;
63112;SDS011;49206;48.020;21.378;2024-03-02T00:10:45;32.20;;;18.10;;
63112;SDS011;49206;48.020;21.378;2024-03-02T00:11:48;30.25;;;17.80;;
63112;SDS011;49206;48.020;21.378;2024-03-02T00:12:51;35.85;;;19.50;;
63112;SDS011;49206;48.020;21.378;2024-03-02T00:13:54;29.60;;;18.85;;
63112;SDS011;49206;48.020;21.378;2024-03-02T00:14:57;30.75;;;18.60;;
63112;SDS011;49206;48.020;21.378;2024-03-02T00:16:05;32.92;;;17.60;;
63112;SDS011;49206;48.020;21.378;2024-03-02T00:17:09;29.15;;;18.33;;
63112;SDS011;49206;48.020;21.378;2024-03-02T00:18:31;27.80;;;17.63;;
63112;SDS011;49206;48.020;21.378;2024-03-02T00:19:38;30.08;;;19.83;;
63112;SDS011;49206;48.020;21.378;2024-03-02T00:20:42;32.25;;;19.67;;
63112;SDS011;49206;48.020;21.378;2024-03-02T00:21:45;32.85;;;18.02;;
63112;SDS011;49206;48.020;21.378;2024-03-02T00:22:48;32.72;;;19.25;;
63112;SDS011;49206;48.020;21.378;2024-03-02T00:23:52;27.70;;;18.23;;
63112;SDS011;49206;48.020;21.378;2024-03-02T00:24:55;32.03;;;19.05;;
63112;SDS011;49206;48.020;21.378;2024-03-02T00:25:58;28.50;;;18.52;;
63112;SDS011;49206;48.020;21.378;2024-03-02T00:27:03;29.67;;;18.77;;
63112;SDS011;49206;48.020;21.378;2024-03-02T00:28:25;29.33;;;19.80;;
63112;SDS011;49206;48.020;21.378;2024-03-02T00:29:29;30.35;;;18.83;;
63112;SDS011;49206;48.020;21.378;2024-03-02T00:31:48;32.72;;;19.17;;
63112;SDS011;49206;48.020;21.378;2024-03-02T00:32:51;36.10;;;19.15;;
63112;SDS011;49206;48.020;21.378;2024-03-02T00:33:55;28.27;;;17.65;;
63112;SDS011;49206;48.020;21.378;2024-03-02T00:34:58;29.48;;;18.73;;
63112;SDS011;49206;48.020;21.378;2024-03-02T00:36:02;31.58;;;18.80;;
63112;SDS011;49206;48.020;21.378;2024-03-02T00:37:06;34.70;;;19.63;;
63112;SDS011;49206;48.020;21.378;2024-03-02T00:38:09;29.15;;;18.52;;
63112;SDS011;49206;48.020;21.378;2024-03-02T00:39:12;32.60;;;19.30;;
63112;SDS011;49206;48.020;21.378;2024-03-02T00:40:16;29.10;;;17.73;;
63112;SDS011;49206;48.020;21.378;2024-03-02T00:42:31;35.38;;;17.88;;
63112;SDS011;49206;48.020;21.378;2024-03-02T00:45:08;29.52;;;18.25;;
63112;SDS011;49206;48.020;21.378;2024-03-02T00:46:20;32.47;;;17.83;;
63112;SDS011;49206;48.020;21.378;2024-03-02T00:47:23;30.65;;;18.50;;
63112;SDS011;49206;48.020;21.378;2024-03-02T00:48:25;30.17;;;18.50;;
63112;SDS011;49206;48.020;21.378;2024-03-02T00:49:29;29.77;;;18.30;;
63112;SDS011;49206;48.020;21.378;2024-03-02T00:50:31;34.05;;;19.77;;
63112;SDS011;49206;48.020;21.378;2024-03-02T00:51:35;32.25;;;20.77;;
63112;SDS011;49206;48.020;21.378;2024-03-02T00:52:39;36.00;;;19.67;;
63112;SDS011;49206;48.020;21.378;2024-03-02T00:53:42;31.15;;;18.88;;
63112;SDS011;49206;48.020;21.378;2024-03-02T00:54:45;30.20;;;19.98;;
63112;SDS011;49206;48.020;21.378;2024-03-02T00:55:47;36.45;;;20.10;;
63112;SDS011;49206;48.020;21.378;2024-03-02T00:56:52;29.15;;;17.92;;
63112;SDS011;49206;48.020;21.378;2024-03-02T00:57:58;28.95;;;18.90;;
63112;SDS011;49206;48.020;21.378;2024-03-02T00:59:01;32.20;;;19.20;;
63112;SDS011;49206;48.020;21.378;2024-03-02T01:00:03;32.70;;;19.13;;
63112;SDS011;49206;48.020;21.378;2024-03-02T01:01:13;32.15;;;19.73;;
63112;SDS011;49206;48.020;21.378;2024-03-02T01:02:16;29.55;;;18.17;;
63112;SDS011;49206;48.020;21.378;2024-03-02T01:03:19;35.88;;;18.30;;
63112;SDS011;49206;48.020;21.378;2024-03-02T01:04:22;32.15;;;18.98;;
63112;SDS011;49206;48.020;21.378;2024-03-02T01:05:24;30.58;;;18.33;;
63112;SDS011;49206;48.020;21.378;2024-03-02T01:06:27;25.67;;;17.10;;
63112;SDS011;49206;48.020;21.378;2024-03-02T01:07:30;32.63;;;18.60;;
63112;SDS011;49206;48.020;21.378;2024-03-02T01:08:33;33.03;;;19.88;;
63112;SDS011;49206;48.020;21.378;2024-03-02T01:09:37;30.30;;;18.27;;
63112;SDS011;49206;48.020;21.378;2024-03-02T01:10:39;31.08;;;18.02;;
63112;SDS011;49206;48.020;21.378;2024-03-02T01:11:42;37.08;;;19.83;;
63112;SDS011;49206;48.020;21.378;2024-03-02T01:12:45;30.65;;;18.55;;
63112;SDS011;49206;48.020;21.378;2024-03-02T01:13:47;33.88;;;18.20;;
63112;SDS011;49206;48.020;21.378;2024-03-02T01:14:50;30.20;;;17.67;;
63112;SDS011;49206;48.020;21.378;2024-03-02T01:15:53;30.52;;;18.27;;
63112;SDS011;49206;48.020;21.378;2024-03-02T01:16:56;29.88;;;19.05;;
63112;SDS011;49206;48.020;21.378;2024-03-02T01:17:58;29.52;;;17.65;;
63112;SDS011;49206;48.020;21.378;2024-03-02T01:19:01;35.83;;;19.85;;
63112;SDS011;49206;48.020;21.378;2024-03-02T01:20:04;30.58;;;18.63;;
63112;SDS011;49206;48.020;21.378;2024-03-02T01:21:11;33.17;;;18.67;;
63112;SDS011;49206;48.020;21.378;2024-03-02T01:22:14;27.45;;;18.73;;
63112;SDS011;49206;48.020;21.378;2024-03-02T01:23:18;25.75;;;17.88;;
63112;SDS011;49206;48.020;21.378;2024-03-02T01:24:21;31.33;;;18.90;;
63112;SDS011;49206;48.020;21.378;2024-03-02T01:25:24;33.85;;;18.67;;
63112;SDS011;49206;48.020;21.378;2024-03-02T01:26:27;31.27;;;18.33;;
63112;SDS011;49206;48.020;21.378;2024-03-02T01:27:30;33.65;;;19.52;;
63112;SDS011;49206;48.020;21.378;2024-03-02T01:28:32;29.30;;;19.23;;
63112;SDS011;49206;48.020;21.378;2024-03-02T01:29:35;31.33;;;18.40;;
63112;SDS011;49206;48.020;21.378;2024-03-02T01:30:38;28.42;;;19.45;;
63112;SDS011;49206;48.020;21.378;2024-03-02T01:31:41;31.40;;;18.33;;
63112;SDS011;49206;48.020;21.378;2024-03-02T01:32:44;31.48;;;18.80;;
63112;SDS011;49206;48.020;21.378;2024-03-02T01:33:46;30.13;;;19.33;;
63112;SDS011;49206;48.020;21.378;2024-03-02T01:34:49;31.58;;;19.05;;
63112;SDS011;49206;48.020;21.378;2024-03-02T01:35:52;33.10;;;19.75;;
63112;SDS011;49206;48.020;21.378;2024-03-02T01:36:55;29.15;;;18.50;;
63112;SDS011;49206;48.020;21.378;2024-03-02T01:37:57;28.90;;;19.25;;
63112;SDS011;49206;48.020;21.378;2024-03-02T01:39:00;32.38;;;19.33;;
63112;SDS011;49206;48.020;21.378;2024-03-02T01:40:03;29.52;;;19.17;;
63112;SDS011;49206;48.020;21.378;2024-03-02T01:41:11;30.92;;;20.83;;
63112;SDS011;49206;48.020;21.378;2024-03-02T01:42:14;35.58;;;19.92;;
63112;SDS011;49206;48.020;21.378;2024-03-02T01:43:17;34.92;;;19.67;;
63112;SDS011;49206;48.020;21.378;2024-03-02T01:44:19;33.15;;;19.52;;
63112;SDS011;49206;48.020;21.378;2024-03-02T01:45:22;32.47;;;20.25;;
63112;SDS011;49206;48.020;21.378;2024-03-02T01:46:25;37.25;;;19.15;;
63112;SDS011;49206;48.020;21.378;2024-03-02T01:47:30;31.02;;;19.70;;
63112;SDS011;49206;48.020;21.378;2024-03-02T01:48:32;31.25;;;19.80;;
63112;SDS011;49206;48.020;21.378;2024-03-02T01:49:36;30.08;;;18.60;;
63112;SDS011;49206;48.020;21.378;2024-03-02T01:50:41;34.33;;;20.70;;
63112;SDS011;49206;48.020;21.378;2024-03-02T01:51:44;28.25;;;18.67;;
63112;SDS011;49206;48.020;21.378;2024-03-02T01:52:46;31.33;;;19.15;;
63112;SDS011;49206;48.020;21.378;2024-03-02T01:53:49;31.52;;;18.80;;
63112;SDS011;49206;48.020;21.378;2024-03-02T01:54:52;32.10;;;19.70;;
63112;SDS011;49206;48.020;21.378;2024-03-02T01:55:54;30.25;;;19.20;;
63112;SDS011;49206;48.020;21.378;2024-03-02T01:56:57;34.78;;;20.08;;
63112;SDS011;49206;48.020;21.378;2024-03-02T01:57:59;30.52;;;20.05;;
63112;SDS011;49206;48.020;21.378;2024-03-02T01:59:03;34.30;;;18.60;;
63112;SDS011;49206;48.020;21.378;2024-03-02T02:00:06;36.10;;;19.40;;
63112;SDS011;49206;48.020;21.378;2024-03-02T02:01:12;33.25;;;18.75;;
63112;SDS011;49206;48.020;21.378;2024-03-02T02:02:16;33.22;;;20.45;;
63112;SDS011;49206;48.020;21.378;2024-03-02T02:03:18;34.08;;;19.23;;
63112;SDS011;49206;48.020;21.378;2024-03-02T02:04:22;30.77;;;19.85;;
63112;SDS011;49206;48.020;21.378;2024-03-02T02:05:30;34.47;;;21.10;;
63112;SDS011;49206;48.020;21.378;2024-03-02T02:06:33;31.48;;;19.83;;
63112;SDS011;49206;48.020;21.378;2024-03-02T02:07:36;33.63;;;19.85;;
63112;SDS011;49206;48.020;21.378;2024-03-02T02:08:39;29.05;;;18.73;;
63112;SDS011;49206;48.020;21.378;2024-03-02T02:09:41;32.45;;;19.73;;
63112;SDS011;49206;48.020;21.378;2024-03-02T02:10:44;32.08;;;20.30;;
63112;SDS011;49206;48.020;21.378;2024-03-02T02:11:47;30.38;;;19.00;;
63112;SDS011;49206;48.020;21.378;2024-03-02T02:12:50;35.72;;;20.15;;
63112;SDS011;49206;48.020;21.378;2024-03-02T02:13:53;32.42;;;18.58;;
63112;SDS011;49206;48.020;21.378;2024-03-02T02:14:58;34.22;;;19.30;;
63112;SDS011;49206;48.020;21.378;2024-03-02T02:16:06;37.65;;;20.05;;
63112;SDS011;49206;48.020;21.378;2024-03-02T02:17:10;31.23;;;19.55;;
63112;SDS011;49206;48.020;21.378;2024-03-02T02:18:12;32.70;;;20.23;;
63112;SDS011;49206;48.020;21.378;2024-03-02T02:19:15;34.42;;;20.40;;
63112;SDS011;49206;48.020;21.378;2024-03-02T02:20:18;33.45;;;19.55;;
63112;SDS011;49206;48.020;21.378;2024-03-02T02:21:24;37.50;;;20.67;;
63112;SDS011;49206;48.020;21.378;2024-03-02T02:22:27;33.97;;;19.38;;
63112;SDS011;49206;48.020;21.378;2024-03-02T02:23:30;36.15;;;19.35;;
63112;SDS011;49206;48.020;21.378;2024-03-02T02:24:32;36.60;;;20.25;;
63112;SDS011;49206;48.020;21.378;2024-03-02T02:25:35;35.22;;;20.08;;
63112;SDS011;49206;48.020;21.378;2024-03-02T02:26:38;36.10;;;19.92;;
63112;SDS011;49206;48.020;21.378;2024-03-02T02:27:41;31.20;;;18.60;;
63112;SDS011;49206;48.020;21.378;2024-03-02T02:28:43;32.63;;;18.80;;
63112;SDS011;49206;48.020;21.378;2024-03-02T02:29:49;34.60;;;20.40;;
63112;SDS011;49206;48.020;21.378;2024-03-02T02:30:51;33.90;;;20.10;;
63112;SDS011;49206;48.020;21.378;2024-03-02T02:31:54;31.25;;;19.75;;
63112;SDS011;49206;48.020;21.378;2024-03-02T02:32:57;34.08;;;20.58;;
63112;SDS011;49206;48.020;21.378;2024-03-02T02:34:01;33.05;;;18.80;;
63112;SDS011;49206;48.020;21.378;2024-03-02T02:35:04;30.88;;;18.80;;
63112;SDS011;49206;48.020;21.378;2024-03-02T02:36:08;36.60;;;20.27;;
63112;SDS011;49206;48.020;21.378;2024-03-02T02:37:12;31.67;;;19.30;;
63112;SDS011;49206;48.020;21.378;2024-03-02T02:38:14;31.75;;;19.10;;
63112;SDS011;49206;48.020;21.378;2024-03-02T02:39:18;29.23;;;18.60;;
63112;SDS011;49206;48.020;21.378;2024-03-02T02:40:22;32.95;;;19.10;;
63112;SDS011;49206;48.020;21.378;2024-03-02T02:41:25;33.45;;;19.20;;
63112;SDS011;49206;48.020;21.378;2024-03-02T02:42:28;35.33;;;20.60;;
63112;SDS011;49206;48.020;21.378;2024-03-02T02:43:31;29.92;;;19.63;;
63112;SDS011;49206;48.020;21.378;2024-03-02T02:44:34;33.78;;;19.23;;
63112;SDS011;49206;48.020;21.378;2024-03-02T02:45:36;36.83;;;20.52;;
63112;SDS011;49206;48.020;21.378;2024-03-02T02:46:39;32.08;;;19.65;;
63112;SDS011;49206;48.020;21.378;2024-03-02T02:47:43;32.28;;;19.20;;
63112;SDS011;49206;48.020;21.378;2024-03-02T02:48:47;32.72;;;19.98;;
63112;SDS011;49206;48.020;21.378;2024-03-02T02:49:50;30.90;;;17.80;;
63112;SDS011;49206;48.020;21.378;2024-03-02T02:50:53;30.85;;;18.38;;
63112;SDS011;49206;48.020;21.378;2024-03-02T02:51:55;35.42;;;19.90;;
63112;SDS011;49206;48.020;21.378;2024-03-02T02:52:59;30.70;;;19.42;;
63112;SDS011;49206;48.020;21.378;2024-03-02T02:54:02;29.33;;;18.35;;
63112;SDS011;49206;48.020;21.378;2024-03-02T02:55:05;32.47;;;19.02;;
63112;SDS011;49206;48.020;21.378;2024-03-02T02:56:09;36.08;;;20.35;;
63112;SDS011;49206;48.020;21.378;2024-03-02T02:57:12;34.50;;;19.25;;
63112;SDS011;49206;48.020;21.378;2024-03-02T02:58:15;28.80;;;19.38;;
63112;SDS011;49206;48.020;21.378;2024-03-02T02:59:17;33.75;;;19.55;;
63112;SDS011;49206;48.020;21.378;2024-03-02T03:00:20;34.78;;;19.77;;
63112;SDS011;49206;48.020;21.378;2024-03-02T03:01:24;36.15;;;19.35;;
63112;SDS011;49206;48.020;21.378;2024-03-02T03:02:27;33.08;;;19.48;;
63112;SDS011;49206;48.020;21.378;2024-03-02T03:03:30;35.67;;;20.52;;
63112;SDS011;49206;48.020;21.378;2024-03-02T03:04:33;35.08;;;19.27;;
63112;SDS011;49206;48.020;21.378;2024-03-02T03:05:35;30.30;;;18.88;;
63112;SDS011;49206;48.020;21.378;2024-03-02T03:06:38;31.98;;;19.30;;
63112;SDS011;49206;48.020;21.378;2024-03-02T03:07:41;35.20;;;20.75;;
63112;SDS011;49206;48.020;21.378;2024-03-02T03:08:44;34.50;;;19.58;;
63112;SDS011;49206;48.020;21.378;2024-03-02T03:09:46;31.83;;;18.55;;
63112;SDS011;49206;48.020;21.378;2024-03-02T03:10:49;32.20;;;18.33;;
63112;SDS011;49206;48.020;21.378;2024-03-02T03:11:52;30.88;;;19.55;;
63112;SDS011;49206;48.020;21.378;2024-03-02T03:12:55;32.20;;;19.08;;
63112;SDS011;49206;48.020;21.378;2024-03-02T03:13:58;30.20;;;18.98;;
63112;SDS011;49206;48.020;21.378;2024-03-02T03:15:02;30.55;;;19.38;;
63112;SDS011;49206;48.020;21.378;2024-03-02T03:16:06;31.60;;;18.65;;
63112;SDS011;49206;48.020;21.378;2024-03-02T03:17:09;35.42;;;18.58;;
63112;SDS011;49206;48.020;21.378;2024-03-02T03:18:12;31.08;;;19.45;;
63112;SDS011;49206;48.020;21.378;2024-03-02T03:19:14;34.45;;;19.77;;
63112;SDS011;49206;48.020;21.378;2024-03-02T03:20:17;29.77;;;17.83;;
63112;SDS011;49206;48.020;21.378;2024-03-02T03:21:20;30.48;;;18.50;;
63112;SDS011;49206;48.020;21.378;2024-03-02T03:22:23;34.53;;;20.42;;
63112;SDS011;49206;48.020;21.378;2024-03-02T03:23:26;33.05;;;20.08;;
63112;SDS011;49206;48.020;21.378;2024-03-02T03:24:29;29.45;;;18.50;;
63112;SDS011;49206;48.020;21.378;2024-03-02T03:25:32;31.88;;;18.65;;
63112;SDS011;49206;48.020;21.378;2024-03-02T03:26:37;28.33;;;18.35;;
63112;SDS011;49206;48.020;21.378;2024-03-02T03:27:41;30.27;;;19.23;;
63112;SDS011;49206;48.020;21.378;2024-03-02T03:28:44;29.67;;;17.60;;
63112;SDS011;49206;48.020;21.378;2024-03-02T03:29:46;30.92;;;18.88;;
63112;SDS011;49206;48.020;21.378;2024-03-02T03:30:49;31.88;;;19.20;;
63112;SDS011;49206;48.020;21.378;2024-03-02T03:31:51;29.98;;;17.98;;
63112;SDS011;49206;48.020;21.378;2024-03-02T03:32:54;30.17;;;17.38;;
63112;SDS011;49206;48.020;21.378;2024-03-02T03:33:57;29.05;;;18.05;;
63112;SDS011;49206;48.020;21.378;2024-03-02T03:34:59;36.35;;;18.55;;
63112;SDS011;49206;48.020;21.378;2024-03-02T03:36:03;30.17;;;18.30;;
63112;SDS011;49206;48.020;21.378;2024-03-02T03:37:06;26.95;;;18.00;;
63112;SDS011;49206;48.020;21.378;2024-03-02T03:38:09;34.42;;;18.63;;
63112;SDS011;49206;48.020;21.378;2024-03-02T03:39:11;30.35;;;18.52;;
63112;SDS011;49206;48.020;21.378;2024-03-02T03:40:14;36.35;;;19.48;;
63112;SDS011;49206;48.020;21.378;2024-03-02T03:41:16;28.73;;;18.73;;
63112;SDS011;49206;48.020;21.378;2024-03-02T03:42:19;28.33;;;17.35;;
63112;SDS011;49206;48.020;21.378;2024-03-02T03:43:22;32.25;;;18.08;;
63112;SDS011;49206;48.020;21.378;2024-03-02T03:44:25;34.92;;;18.05;;
63112;SDS011;49206;48.020;21.378;2024-03-02T03:45:27;28.50;;;19.17;;
63112;SDS011;49206;48.020;21.378;2024-03-02T03:46:30;32.28;;;18.30;;
63112;SDS011;49206;48.020;21.378;2024-03-02T03:47:33;29.40;;;18.35;;
63112;SDS011;49206;48.020;21.378;2024-03-02T03:48:36;32.30;;;18.35;;
63112;SDS011;49206;48.020;21.378;2024-03-02T03:49:38;36.83;;;18.88;;
63112;SDS011;49206;48.020;21.378;2024-03-02T03:50:40;31.38;;;18.63;;
63112;SDS011;49206;48.020;21.378;2024-03-02T03:51:43;29.98;;;18.38;;
63112;SDS011;49206;48.020;21.378;2024-03-02T03:52:46;27.15;;;16.83;;
63112;SDS011;49206;48.020;21.378;2024-03-02T03:53:49;31.25;;;18.63;;
63112;SDS011;49206;48.020;21.378;2024-03-02T03:54:52;29.27;;;18.15;;
63112;SDS011;49206;48.020;21.378;2024-03-02T03:55:54;29.83;;;17.70;;
63112;SDS011;49206;48.020;21.378;2024-03-02T03:56:57;28.15;;;17.77;;
63112;SDS011;49206;48.020;21.378;2024-03-02T03:58:00;30.23;;;17.95;;
63112;SDS011;49206;48.020;21.378;2024-03-02T03:59:03;27.05;;;17.77;;
63112;SDS011;49206;48.020;21.378;2024-03-02T04:00:07;30.00;;;17.05;;
63112;SDS011;49206;48.020;21.378;2024-03-02T04:01:15;29.17;;;16.77;;
63112;SDS011;49206;48.020;21.378;2024-03-02T04:02:18;32.28;;;18.00;;
63112;SDS011;49206;48.020;21.378;2024-03-02T04:03:20;29.85;;;17.67;;
63112;SDS011;49206;48.020;21.378;2024-03-02T04:04:23;33.58;;;18.92;;
63112;SDS011;49206;48.020;21.378;2024-03-02T04:05:26;29.05;;;17.33;;
63112;SDS011;49206;48.020;21.378;2024-03-02T04:06:29;31.45;;;17.95;;
63112;SDS011;49206;48.020;21.378;2024-03-02T04:07:32;35.63;;;19.10;;
63112;SDS011;49206;48.020;21.378;2024-03-02T04:08:35;34.30;;;17.60;;
63112;SDS011;49206;48.020;21.378;2024-03-02T04:09:37;30.83;;;18.55;;
63112;SDS011;49206;48.020;21.378;2024-03-02T04:10:40;31.05;;;18.95;;
63112;SDS011;49206;48.020;21.378;2024-03-02T04:11:44;29.45;;;19.02;;
63112;SDS011;49206;48.020;21.378;2024-03-02T04:12:47;31.80;;;19.33;;
63112;SDS011;49206;48.020;21.378;2024-03-02T04:13:53;29.05;;;17.63;;
63112;SDS011;49206;48.020;21.378;2024-03-02T04:14:59;36.50;;;19.70;;
63112;SDS011;49206;48.020;21.378;2024-03-02T04:16:03;31.92;;;18.63;;
63112;SDS011;49206;48.020;21.378;2024-03-02T04:17:08;34.08;;;18.92;;
63112;SDS011;49206;48.020;21.378;2024-03-02T04:18:11;29.15;;;18.67;;
63112;SDS011;49206;48.020;21.378;2024-03-02T04:19:14;32.40;;;19.75;;
63112;SDS011;49206;48.020;21.378;2024-03-02T04:20:17;30.75;;;18.13;;
63112;SDS011;49206;48.020;21.378;2024-03-02T04:21:20;28.02;;;16.85;;
63112;SDS011;49206;48.020;21.378;2024-03-02T04:22:23;30.67;;;18.67;;
63112;SDS011;49206;48.020;21.378;2024-03-02T04:23:27;29.02;;;17.20;;
63112;SDS011;49206;48.020;21.378;2024-03-02T04:24:29;29.05;;;16.27;;
63112;SDS011;49206;48.020;21.378;2024-03-02T04:25:32;22.98;;;14.65;;
63112;SDS011;49206;48.020;21.378;2024-03-02T04:26:35;30.60;;;16.40;;
63112;SDS011;49206;48.020;21.378;2024-03-02T04:27:38;28.23;;;16.58;;
63112;SDS011;49206;48.020;21.378;2024-03-02T04:28:41;25.13;;;15.80;;
63112;SDS011;49206;48.020;21.378;2024-03-02T04:29:43;32.05;;;16.73;;
63112;SDS011;49206;48.020;21.378;2024-03-02T04:30:46;27.77;;;16.50;;
63112;SDS011;49206;48.020;21.378;2024-03-02T04:31:48;27.73;;;17.08;;
63112;SDS011;49206;48.020;21.378;2024-03-02T04:32:51;24.30;;;15.55;;
63112;SDS011;49206;48.020;21.378;2024-03-02T04:33:54;25.85;;;16.10;;
63112;SDS011;49206;48.020;21.378;2024-03-02T04:34:57;26.58;;;15.68;;
63112;SDS011;49206;48.020;21.378;2024-03-02T04:35:59;29.95;;;17.15;;
63112;SDS011;49206;48.020;21.378;2024-03-02T04:37:05;31.13;;;16.30;;
63112;SDS011;49206;48.020;21.378;2024-03-02T04:38:10;26.58;;;16.67;;
63112;SDS011;49206;48.020;21.378;2024-03-02T04:39:13;26.13;;;18.08;;
63112;SDS011;49206;48.020;21.378;2024-03-02T04:40:16;25.90;;;16.05;;
63112;SDS011;49206;48.020;21.378;2024-03-02T04:41:18;28.25;;;16.70;;
63112;SDS011;49206;48.020;21.378;2024-03-02T04:42:21;28.98;;;17.15;;
63112;SDS011;49206;48.020;21.378;2024-03-02T04:43:25;27.17;;;16.48;;
63112;SDS011;49206;48.020;21.378;2024-03-02T04:44:27;27.67;;;15.73;;
63112;SDS011;49206;48.020;21.378;2024-03-02T04:45:30;24.85;;;15.38;;
63112;SDS011;49206;48.020;21.378;2024-03-02T04:46:32;27.73;;;16.02;;
63112;SDS011;49206;48.020;21.378;2024-03-02T04:47:35;24.10;;;16.23;;
63112;SDS011;49206;48.020;21.378;2024-03-02T04:48:37;28.60;;;17.35;;
63112;SDS011;49206;48.020;21.378;2024-03-02T04:49:40;28.60;;;18.25;;
63112;SDS011;49206;48.020;21.378;2024-03-02T04:50:43;29.95;;;17.58;;
63112;SDS011;49206;48.020;21.378;2024-03-02T04:51:46;28.48;;;16.92;;
63112;SDS011;49206;48.020;21.378;2024-03-02T04:52:49;26.88;;;15.63;;
63112;SDS011;49206;48.020;21.378;2024-03-02T04:53:51;33.10;;;17.60;;
63112;SDS011;49206;48.020;21.378;2024-03-02T04:54:54;29.42;;;16.73;;
63112;SDS011;49206;48.020;21.378;2024-03-02T04:56:12;30.00;;;15.65;;
63112;SDS011;49206;48.020;21.378;2024-03-02T04:57:34;27.10;;;16.15;;
63112;SDS011;49206;48.020;21.378;2024-03-02T04:58:37;28.08;;;15.85;;
63112;SDS011;49206;48.020;21.378;2024-03-02T04:59:40;27.48;;;17.50;;
63112;SDS011;49206;48.020;21.378;2024-03-02T05:00:43;26.65;;;17.10;;
63112;SDS011;49206;48.020;21.378;2024-03-02T05:01:49;28.02;;;17.65;;
63112;SDS011;49206;48.020;21.378;2024-03-02T05:02:52;27.05;;;17.00;;
63112;SDS011;49206;48.020;21.378;2024-03-02T05:03:55;31.92;;;18.77;;
63112;SDS011;49206;48.020;21.378;2024-03-02T05:04:58;29.02;;;18.23;;
63112;SDS011;49206;48.020;21.378;2024-03-02T05:06:01;26.58;;;17.35;;
63112;SDS011;49206;48.020;21.378;2024-03-02T05:07:04;34.22;;;19.73;;
63112;SDS011;49206;48.020;21.378;2024-03-02T05:08:06;37.33;;;20.05;;
63112;SDS011;49206;48.020;21.378;2024-03-02T05:09:09;28.90;;;16.98;;
63112;SDS011;49206;48.020;21.378;2024-03-02T05:10:12;32.45;;;18.33;;
63112;SDS011;49206;48.020;21.378;2024-03-02T05:11:15;30.13;;;18.17;;
63112;SDS011;49206;48.020;21.378;2024-03-02T05:12:38;33.58;;;19.73;;
63112;SDS011;49206;48.020;21.378;2024-03-02T05:14:05;30.77;;;18.85;;
63112;SDS011;49206;48.020;21.378;2024-03-02T05:15:09;31.50;;;18.13;;
63112;SDS011;49206;48.020;21.378;2024-03-02T05:16:12;32.22;;;18.80;;
63112;SDS011;49206;48.020;21.378;2024-03-02T05:17:15;30.88;;;19.27;;
63112;SDS011;49206;48.020;21.378;2024-03-02T05:18:17;30.00;;;19.23;;
63112;SDS011;49206;48.020;21.378;2024-03-02T05:19:21;29.83;;;19.45;;
63112;SDS011;49206;48.020;21.378;2024-03-02T05:20:23;36.88;;;19.65;;
63112;SDS011;49206;48.020;21.378;2024-03-02T05:21:27;38.72;;;20.60;;
63112;SDS011;49206;48.020;21.378;2024-03-02T05:22:29;27.75;;;19.77;;
63112;SDS011;49206;48.020;21.378;2024-03-02T05:23:32;33.33;;;20.40;;
63112;SDS011;49206;48.020;21.378;2024-03-02T05:24:35;31.67;;;20.15;;
63112;SDS011;49206;48.020;21.378;2024-03-02T05:25:38;32.80;;;19.55;;
63112;SDS011;49206;48.020;21.378;2024-03-02T05:26:41;32.55;;;20.77;;
63112;SDS011;49206;48.020;21.378;2024-03-02T05:27:44;31.02;;;20.10;;
63112;SDS011;49206;48.020;21.378;2024-03-02T05:28:47;34.88;;;19.90;;
63112;SDS011;49206;48.020;21.378;2024-03-02T05:29:50;34.88;;;20.40;;
63112;SDS011;49206;48.020;21.378;2024-03-02T05:30:52;30.85;;;19.70;;
63112;SDS011;49206;48.020;21.378;2024-03-02T05:31:55;37.88;;;22.20;;
63112;SDS011;49206;48.020;21.378;2024-03-02T05:32:58;32.90;;;21.63;;
63112;SDS011;49206;48.020;21.378;2024-03-02T05:34:01;35.67;;;22.30;;
63112;SDS011;49206;48.020;21.378;2024-03-02T05:35:05;38.35;;;24.08;;
63112;SDS011;49206;48.020;21.378;2024-03-02T05:36:08;40.67;;;20.70;;
63112;SDS011;49206;48.020;21.378;2024-03-02T05:37:11;40.70;;;22.38;;
63112;SDS011;49206;48.020;21.378;2024-03-02T05:38:14;37.33;;;22.45;;
63112;SDS011;49206;48.020;21.378;2024-03-02T05:39:16;40.78;;;23.67;;
63112;SDS011;49206;48.020;21.378;2024-03-02T05:40:19;40.30;;;24.50;;
63112;SDS011;49206;48.020;21.378;2024-03-02T05:41:25;37.72;;;23.63;;
63112;SDS011;49206;48.020;21.378;2024-03-02T05:42:28;37.90;;;24.98;;
63112;SDS011;49206;48.020;21.378;2024-03-02T05:43:31;36.97;;;23.58;;
63112;SDS011;49206;48.020;21.378;2024-03-02T05:44:35;40.45;;;23.33;;
63112;SDS011;49206;48.020;21.378;2024-03-02T05:45:41;36.38;;;23.45;;
63112;SDS011;49206;48.020;21.378;2024-03-02T05:46:44;37.35;;;22.08;;
63112;SDS011;49206;48.020;21.378;2024-03-02T05:47:46;37.83;;;22.33;;
63112;SDS011;49206;48.020;21.378;2024-03-02T05:48:49;37.20;;;22.58;;
63112;SDS011;49206;48.020;21.378;2024-03-02T05:49:51;44.67;;;23.80;;
63112;SDS011;49206;48.020;21.378;2024-03-02T05:50:54;40.13;;;24.30;;
63112;SDS011;49206;48.020;21.378;2024-03-02T05:51:56;42.00;;;24.63;;
63112;SDS011;49206;48.020;21.378;2024-03-02T05:52:59;40.50;;;23.40;;
63112;SDS011;49206;48.020;21.378;2024-03-02T05:54:02;37.78;;;23.63;;
63112;SDS011;49206;48.020;21.378;2024-03-02T05:55:05;35.92;;;24.73;;
63112;SDS011;49206;48.020;21.378;2024-03-02T05:56:08;44.67;;;25.60;;
63112;SDS011;49206;48.020;21.378;2024-03-02T05:58:33;40.13;;;22.85;;
63112;SDS011;49206;48.020;21.378;2024-03-02T05:59:36;40.95;;;26.10;;
63112;SDS011;49206;48.020;21.378;2024-03-02T06:00:38;40.75;;;24.30;;
63112;SDS011;49206;48.020;21.378;2024-03-02T06:01:42;44.67;;;24.38;;
63112;SDS011;49206;48.020;21.378;2024-03-02T06:03:48;36.80;;;24.27;;
63112;SDS011;49206;48.020;21.378;2024-03-02T06:04:54;42.63;;;27.05;;
63112;SDS011;49206;48.020;21.378;2024-03-02T06:05:58;41.00;;;25.17;;
63112;SDS011;49206;48.020;21.378;2024-03-02T06:07:00;41.78;;;25.35;;
63112;SDS011;49206;48.020;21.378;2024-03-02T06:08:03;41.22;;;25.92;;
63112;SDS011;49206;48.020;21.378;2024-03-02T06:09:06;40.53;;;25.52;;
63112;SDS011;49206;48.020;21.378;2024-03-02T06:11:15;39.80;;;23.63;;
63112;SDS011;49206;48.020;21.378;2024-03-02T06:12:18;41.53;;;24.25;;
63112;SDS011;49206;48.020;21.378;2024-03-02T06:13:22;44.22;;;25.45;;